Temple, Louisiana
Current Conditions -  °F | °C
As of 9:56 AM on Monday 24 Nov 2014 (Local Time) from KAQV Reporting Station
Clear Clear  
Wind Chill: 56°   Ceiling: Unl
Heat Index: 56°   Visibility: 10mi
Dew Point: 38°   Wind: 6mph
Humidity: 51%   Direction: NA
Pressure: 29.99"   Gusts: NA
Location:  31.2634°N, 93.0086°W
Report Text: KAQV 241556Z AUTO VRB05KT 10SM CLR 13/03 A2999 RMK AO2 SLP156 T01330033
Loading
Personal Weather Stations






























Interactive Weather Map New forecast layout! Learn more

10-Day Weather Forecast

Advertisements
Track Severe Weather on mobile